aviador You're here:

CYOY Decoded Metar

VALCARTIER AIRPO in QC, CANADA
Report Time2018-07-23 11:00:00
UTC Time2018-07-23 11:13:17
Flight Rules lifr LIFR
Wind100° at 03 kt
W.Rank100° ranks 17
Current wind is below 100° avg. (5.1)
Visibility2615 m
Phenomena:N/A
Clouds:Overcast 001 Hf
Ceiling100 ft
Temp18°C (ISA +4)
Dew Point18°C (100% RH)
QNH1023 hPa
Density Alt971 ft
Elevation551 ft
Report Wrong Elevation
Raw Report
CYOY 231100Z AUTO 10003KT 030V160 1 5/8SM OVC001 18/18 A3020 RMK
SLP228=

Extra information for CYOY:More info

Metar Taf Metar & Taf Last 4 Metars F.Rules Stats Wind Profile Meteogram Temp Stats Airport Information Weather charts Add Link Nearby VenuesMetar ALERT Operation Metar Decoded Social comments